Time;durP1;ratioP1;P1;durP2;ratioP2;P2;SDS_P1;SDS_P2;PMS_P1;PMS_P2;Temp;Humidity;BMP_temperature;BMP_pressure;BME280_temperature;BME280_humidity;BME280_pressure;Samples;Min_cycle;Max_cycle;Signal;HPM_P1;HPM_P2
2024/01/18 00:01:33;;;;;;;11.13;8.02;;;-2.30;99.90;;;;;;6270235;22;20022;-80
2024/01/18 00:03:59;;;;;;;10.57;7.32;;;-2.30;99.90;;;;;;6241680;22;20023;-81
2024/01/18 00:06:25;;;;;;;12.35;7.85;;;-2.30;99.90;;;;;;6243576;22;20008;-81
2024/01/18 00:08:51;;;;;;;11.63;6.78;;;-2.30;99.90;;;;;;6270088;22;20019;-80
2024/01/18 00:11:16;;;;;;;8.30;6.45;;;-2.40;99.90;;;;;;6269419;22;20090;-80
2024/01/18 00:13:44;;;;;;;12.65;7.03;;;-2.30;99.90;;;;;;6263857;22;20034;-80
2024/01/18 00:16:10;;;;;;;12.15;8.32;;;-2.30;99.90;;;;;;6241240;22;20020;-80
2024/01/18 00:18:35;;;;;;;8.45;6.65;;;-2.30;99.90;;;;;;6268728;22;20046;-80
2024/01/18 00:21:01;;;;;;;8.53;5.27;;;-2.30;99.90;;;;;;6268391;22;20019;-80
2024/01/18 00:23:26;;;;;;;9.13;6.20;;;-2.30;99.90;;;;;;6242405;22;20242;-80
2024/01/18 00:25:52;;;;;;;7.80;5.60;;;-2.30;99.90;;;;;;6242997;22;20106;-80
2024/01/18 00:28:18;;;;;;;9.05;5.60;;;-2.20;99.90;;;;;;6268811;22;20086;-80
2024/01/18 00:30:43;;;;;;;8.40;5.23;;;-2.30;99.90;;;;;;6269699;22;20019;-80
2024/01/18 00:33:09;;;;;;;9.50;5.07;;;-2.20;99.90;;;;;;6268884;22;20019;-80
2024/01/18 00:35:35;;;;;;;6.05;3.97;;;-2.20;99.90;;;;;;6243956;22;20014;-78
2024/01/18 00:38:00;;;;;;;6.83;4.50;;;-2.20;99.90;;;;;;6268518;22;20069;-79
2024/01/18 00:40:26;;;;;;;8.63;5.15;;;-2.20;99.90;;;;;;6269012;22;20027;-79
2024/01/18 00:42:52;;;;;;;7.50;4.45;;;-2.20;99.90;;;;;;6268360;22;20011;-79
2024/01/18 00:45:17;;;;;;;7.40;4.90;;;-2.20;99.90;;;;;;6269063;22;20413;-79
2024/01/18 00:47:44;;;;;;;6.73;4.57;;;-2.20;99.90;;;;;;6269625;22;20291;-79
2024/01/18 00:50:10;;;;;;;7.88;4.35;;;-2.30;99.90;;;;;;6268960;22;20019;-79
2024/01/18 00:52:35;;;;;;;5.43;3.97;;;-2.30;99.90;;;;;;6244097;22;20081;-79
2024/01/18 00:55:01;;;;;;;5.60;4.23;;;-2.40;99.90;;;;;;6268293;22;20046;-79
2024/01/18 00:57:28;;;;;;;10.48;4.43;;;-2.50;99.90;;;;;;6269005;22;20952;-80
2024/01/18 00:59:54;;;;;;;6.70;4.43;;;-2.50;99.90;;;;;;6268704;22;20490;-80
2024/01/18 01:02:20;;;;;;;6.35;4.20;;;-2.50;99.90;;;;;;6273343;22;20023;-80
2024/01/18 01:04:46;;;;;;;4.93;3.22;;;-2.60;99.90;;;;;;6273867;22;20019;-80
2024/01/18 01:07:12;;;;;;;6.05;4.40;;;-2.70;99.90;;;;;;6248431;22;20034;-80
2024/01/18 01:09:37;;;;;;;8.38;4.88;;;-2.70;99.90;;;;;;6248308;22;20439;-80
2024/01/18 01:12:03;;;;;;;7.00;4.80;;;-2.70;99.90;;;;;;6247354;22;20435;-80
2024/01/18 01:14:29;;;;;;;6.30;4.50;;;-2.80;99.90;;;;;;6274038;22;20238;-80
2024/01/18 01:16:55;;;;;;;6.65;4.43;;;-2.90;99.90;;;;;;6273009;22;20440;-79
2024/01/18 01:19:20;;;;;;;7.07;4.40;;;-3.00;99.90;;;;;;6248172;22;20022;-80
2024/01/18 01:21:46;;;;;;;9.10;4.40;;;-3.00;99.90;;;;;;6273932;22;20007;-80
2024/01/18 01:24:12;;;;;;;7.53;3.90;;;-3.00;99.90;;;;;;6247281;22;20098;-80
2024/01/18 01:26:37;;;;;;;4.57;3.20;;;-3.00;99.90;;;;;;6273733;22;20033;-79
2024/01/18 01:29:04;;;;;;;4.60;2.87;;;-2.90;99.90;;;;;;6273768;22;20249;-79
2024/01/18 01:31:30;;;;;;;3.55;1.92;;;-2.90;99.90;;;;;;6273267;22;20363;-79
2024/01/18 01:33:56;;;;;;;4.30;1.52;;;-2.40;99.90;;;;;;6247915;22;20041;-80
2024/01/18 01:36:21;;;;;;;3.35;1.02;;;-2.20;99.90;;;;;;6273790;22;20433;-79
2024/01/18 01:38:47;;;;;;;5.87;1.70;;;-2.10;99.90;;;;;;6273331;22;20495;-80
2024/01/18 01:41:13;;;;;;;3.75;1.00;;;-1.80;99.90;;;;;;6273921;22;20302;-79
2024/01/18 01:43:55;;;;;;;1.90;0.93;;;-1.80;99.90;;;;;;6273372;22;20043;-80
2024/01/18 01:46:21;;;;;;;7.25;1.33;;;-1.70;99.90;;;;;;6248536;22;20252;-79
2024/01/18 01:48:47;;;;;;;5.17;0.90;;;-1.50;99.90;;;;;;6247825;22;20689;-79
2024/01/18 01:51:13;;;;;;;4.57;0.90;;;-1.60;99.90;;;;;;6273728;22;20734;-79
2024/01/18 01:53:38;;;;;;;4.72;1.45;;;-1.50;99.90;;;;;;6247816;22;20091;-80
2024/01/18 01:56:04;;;;;;;6.67;1.23;;;-1.40;99.90;;;;;;6248301;22;20439;-79
2024/01/18 01:58:30;;;;;;;3.30;0.80;;;-1.40;99.90;;;;;;6272962;22;20230;-80
2024/01/18 02:00:55;;;;;;;4.70;1.50;;;-1.30;99.90;;;;;;6273244;22;20007;-79
2024/01/18 02:03:21;;;;;;;2.15;0.80;;;-1.30;99.90;;;;;;6273053;22;20022;-79
2024/01/18 02:05:47;;;;;;;1.92;0.70;;;-1.40;99.90;;;;;;6272908;22;20015;-79
2024/01/18 02:08:12;;;;;;;1.30;0.60;;;-1.40;99.90;;;;;;6247761;22;20020;-79
2024/01/18 02:10:39;;;;;;;3.50;1.10;;;-1.50;99.90;;;;;;6272998;22;20004;-80
2024/01/18 02:13:08;;;;;;;2.33;0.52;;;-1.50;99.90;;;;;;6272381;22;20530;-79
2024/01/18 02:15:34;;;;;;;2.03;0.70;;;-1.70;99.90;;;;;;6247952;22;20062;-79
2024/01/18 02:18:00;;;;;;;3.15;0.90;;;-1.90;99.90;;;;;;6248067;22;20011;-79
2024/01/18 02:20:26;;;;;;;3.80;1.00;;;-1.90;99.90;;;;;;6247372;22;20563;-79
2024/01/18 02:22:53;;;;;;;2.50;1.03;;;-1.90;99.90;;;;;;6273155;22;20038;-79
2024/01/18 02:25:24;;;;;;;1.73;0.93;;;-1.80;99.90;;;;;;6248047;22;20757;-79
2024/01/18 02:27:55;;;;;;;2.20;0.82;;;-1.80;99.90;;;;;;6271933;22;20078;-79
2024/01/18 02:30:20;;;;;;;4.80;1.00;;;-1.80;99.90;;;;;;6273767;22;20492;-79
2024/01/18 02:32:46;;;;;;;5.10;1.15;;;-1.80;99.90;;;;;;6248390;22;20019;-79
2024/01/18 02:35:13;;;;;;;3.55;1.15;;;-1.80;99.90;;;;;;6247566;22;20132;-79
2024/01/18 02:37:38;;;;;;;;;;;-1.70;99.90;;;;;;6248695;22;20015;-79
2024/01/18 02:40:06;;;;;;;2.67;1.10;;;-1.70;99.90;;;;;;6273487;22;19911;-79
2024/01/18 02:42:32;;;;;;;2.72;0.90;;;-1.80;99.90;;;;;;6273427;22;20042;-79
2024/01/18 02:44:58;;;;;;;3.08;1.27;;;-1.80;99.90;;;;;;6273476;22;20011;-80
2024/01/18 02:47:24;;;;;;;3.00;1.05;;;-1.90;99.90;;;;;;6274890;22;20011;-79
2024/01/18 02:49:50;;;;;;;4.50;1.30;;;-1.90;99.90;;;;;;6275248;22;20133;-79
2024/01/18 02:52:16;;;;;;;3.00;1.43;;;-1.90;99.90;;;;;;6250087;22;20034;-79
2024/01/18 02:54:41;;;;;;;3.33;1.23;;;-2.00;99.90;;;;;;6274676;22;20229;-79
2024/01/18 02:57:07;;;;;;;6.50;1.33;;;-2.10;99.90;;;;;;6274930;22;20249;-79
2024/01/18 02:59:32;;;;;;;4.17;1.40;;;-1.90;99.90;;;;;;6275834;22;20066;-79
2024/01/18 03:01:58;;;;;;;3.50;1.30;;;-1.80;99.90;;;;;;6244428;22;20567;-79
2024/01/18 03:04:24;;;;;;;3.00;1.33;;;-1.70;99.90;;;;;;6269100;22;20026;-79
2024/01/18 03:06:49;;;;;;;1.73;0.80;;;-1.70;99.90;;;;;;6268147;22;20264;-79
2024/01/18 03:09:15;;;;;;;2.47;1.10;;;-1.60;99.90;;;;;;6269048;22;20043;-80
2024/01/18 03:11:40;;;;;;;2.85;0.77;;;-1.70;99.90;;;;;;6270467;22;20349;-79
2024/01/18 03:14:06;;;;;;;6.13;0.82;;;-1.70;99.90;;;;;;6269603;22;20007;-80
2024/01/18 03:16:32;;;;;;;1.03;0.90;;;-1.80;99.90;;;;;;6269742;22;20019;-79
2024/01/18 03:18:57;;;;;;;2.00;1.25;;;-1.90;99.90;;;;;;6243185;22;20251;-79
2024/01/18 03:21:23;;;;;;;4.28;0.80;;;-1.80;99.90;;;;;;6269561;22;20090;-80
2024/01/18 03:23:49;;;;;;;3.40;0.65;;;-1.80;99.90;;;;;;6270003;22;20411;-79
2024/01/18 03:26:14;;;;;;;2.55;0.90;;;-1.80;99.90;;;;;;6244300;22;20011;-80
2024/01/18 03:28:40;;;;;;;6.30;1.07;;;-1.70;99.90;;;;;;6244009;22;20344;-80
2024/01/18 03:31:12;;;;;;;4.23;0.83;;;-1.60;99.90;;;;;;6270176;22;20333;-78
2024/01/18 03:33:38;;;;;;;2.50;0.65;;;-1.50;99.90;;;;;;6243911;22;20018;-78
2024/01/18 03:36:04;;;;;;;7.72;1.15;;;-1.40;99.90;;;;;;6269770;22;20441;-79
2024/01/18 03:38:29;;;;;;;3.13;0.60;;;-1.20;99.90;;;;;;6270066;22;20019;-78
2024/01/18 03:40:55;;;;;;;3.63;0.73;;;-1.10;99.90;;;;;;6270527;22;20008;-78
2024/01/18 03:43:20;;;;;;;4.53;0.80;;;-0.90;99.90;;;;;;6244489;22;20094;-78
2024/01/18 03:45:47;;;;;;;5.87;1.20;;;-0.80;99.90;;;;;;6270064;22;20773;-79
2024/01/18 03:48:12;;;;;;;;;;;-0.60;99.90;;;;;;6270195;22;20058;-78
2024/01/18 03:50:38;;;;;;;5.28;1.95;;;-0.40;99.90;;;;;;6270517;22;20220;-78
2024/01/18 03:53:04;;;;;;;6.10;2.80;;;-0.20;99.90;;;;;;6269727;22;20379;-79
2024/01/18 03:55:29;;;;;;;5.00;2.65;;;-0.20;99.90;;;;;;6270122;22;20022;-79
2024/01/18 03:57:55;;;;;;;6.17;1.80;;;-0.20;99.90;;;;;;6243941;22;20023;-79
2024/01/18 04:00:21;;;;;;;5.32;1.90;;;0.00;99.90;;;;;;6244818;22;20230;-79
2024/01/18 04:02:47;;;;;;;7.13;2.53;;;0.00;99.90;;;;;;6269261;22;20015;-78
2024/01/18 04:05:13;;;;;;;11.57;3.38;;;0.00;99.90;;;;;;6244191;22;20352;-78
2024/01/18 04:07:38;;;;;;;5.43;2.70;;;0.00;99.90;;;;;;6267615;22;20521;-79
2024/01/18 04:10:04;;;;;;;6.47;2.05;;;0.10;99.90;;;;;;6240600;22;20018;-79
2024/01/18 04:12:30;;;;;;;4.07;1.08;;;0.10;99.90;;;;;;6268593;22;20018;-78
2024/01/18 04:14:56;;;;;;;6.15;0.98;;;0.10;99.90;;;;;;6269299;22;20020;-79
2024/01/18 04:17:21;;;;;;;3.33;0.80;;;-0.10;99.90;;;;;;6243266;22;20784;-79
2024/01/18 04:19:47;;;;;;;1.87;0.30;;;0.10;99.90;;;;;;6244156;22;20064;-78
2024/01/18 04:22:13;;;;;;;4.17;0.40;;;0.10;99.90;;;;;;6269442;22;20238;-78
2024/01/18 04:24:38;;;;;;;3.72;1.15;;;0.10;99.90;;;;;;6243534;22;20050;-79
2024/01/18 04:27:04;;;;;;;2.80;0.60;;;0.20;99.90;;;;;;6268873;22;20007;-79
2024/01/18 04:29:30;;;;;;;0.82;0.15;;;0.10;99.90;;;;;;6267993;22;20015;-79
2024/01/18 04:31:55;;;;;;;2.08;0.28;;;0.10;99.90;;;;;;6268205;22;20375;-79
2024/01/18 04:34:21;;;;;;;0.25;0.00;;;0.00;99.90;;;;;;6268464;22;20012;-78
2024/01/18 04:36:47;;;;;;;0.23;0.10;;;-0.10;99.90;;;;;;6243408;22;20016;-79
2024/01/18 04:39:14;;;;;;;2.05;0.20;;;-0.20;99.90;;;;;;6243255;22;20262;-79
2024/01/18 04:41:40;;;;;;;0.80;0.15;;;-0.40;99.90;;;;;;6269580;22;20020;-78
2024/01/18 04:44:05;;;;;;;0.77;0.10;;;-0.50;99.90;;;;;;6268171;22;20061;-79
2024/01/18 04:46:31;;;;;;;0.30;0.10;;;-0.70;99.90;;;;;;6268444;22;20018;-79
2024/01/18 04:48:57;;;;;;;0.88;0.10;;;-0.80;99.90;;;;;;6268424;22;20023;-78
2024/01/18 04:51:23;;;;;;;0.10;0.00;;;-1.00;99.90;;;;;;6269443;22;20016;-79
2024/01/18 04:53:48;;;;;;;1.08;0.38;;;-1.00;99.90;;;;;;6242750;22;20043;-79
2024/01/18 04:56:15;;;;;;;0.53;0.20;;;-1.20;99.90;;;;;;6267707;22;20020;-80
2024/01/18 04:58:40;;;;;;;1.50;0.35;;;-1.20;99.90;;;;;;6267425;22;20250;-80
2024/01/18 05:01:06;;;;;;;1.50;0.30;;;-1.10;99.90;;;;;;6266890;22;20053;-79
2024/01/18 05:03:32;;;;;;;0.80;0.30;;;-1.20;99.90;;;;;;6266481;22;20505;-79
2024/01/18 05:05:58;;;;;;;3.93;0.80;;;-1.30;99.90;;;;;;6266060;22;20262;-80
2024/01/18 05:08:24;;;;;;;1.65;0.30;;;-1.30;99.90;;;;;;6269046;22;20230;-79
2024/01/18 05:10:49;;;;;;;1.30;0.38;;;-1.10;99.90;;;;;;6267556;22;20015;-79
2024/01/18 05:13:15;;;;;;;0.52;0.20;;;-1.20;99.90;;;;;;6268237;22;20460;-79
2024/01/18 05:15:41;;;;;;;2.17;0.38;;;-1.10;99.90;;;;;;6267398;22;20019;-80
2024/01/18 05:18:09;;;;;;;3.20;0.43;;;-1.20;99.90;;;;;;6269192;22;20114;-79
2024/01/18 05:20:34;;;;;;;2.25;0.30;;;-1.20;99.90;;;;;;6268743;22;20011;-80
2024/01/18 05:23:00;;;;;;;1.30;0.30;;;-1.10;99.90;;;;;;6242401;22;20060;-79
2024/01/18 05:25:26;;;;;;;0.27;0.20;;;-1.00;99.90;;;;;;6268220;22;20408;-80
2024/01/18 05:27:51;;;;;;;1.17;0.30;;;-1.00;99.90;;;;;;6267658;22;20012;-80
2024/01/18 05:30:17;;;;;;;1.45;0.30;;;-1.30;99.90;;;;;;6267632;22;20364;-80
2024/01/18 05:32:43;;;;;;;1.03;0.33;;;-1.10;99.90;;;;;;6267648;22;20008;-80
2024/01/18 05:35:09;;;;;;;1.83;0.30;;;-1.20;99.90;;;;;;6242395;22;20238;-80
2024/01/18 05:37:34;;;;;;;3.63;0.35;;;-1.20;99.90;;;;;;6241822;22;20020;-79
2024/01/18 05:40:00;;;;;;;1.60;0.43;;;-1.20;99.90;;;;;;6263887;22;20023;-79
2024/01/18 05:42:27;;;;;;;1.42;0.40;;;-1.40;99.90;;;;;;6266371;22;20231;-80
2024/01/18 05:44:53;;;;;;;1.38;0.47;;;-1.40;99.90;;;;;;6239180;22;20015;-79
2024/01/18 05:47:20;;;;;;;5.43;0.70;;;-1.30;99.90;;;;;;6266962;22;20015;-79
2024/01/18 05:49:46;;;;;;;1.75;0.30;;;-1.30;99.90;;;;;;6240637;22;20035;-79
2024/01/18 05:52:11;;;;;;;2.50;0.60;;;-1.20;99.90;;;;;;6267160;22;20363;-79
2024/01/18 05:54:37;;;;;;;3.23;0.63;;;-1.20;99.90;;;;;;6267569;22;20008;-79
2024/01/18 05:57:04;;;;;;;3.47;0.60;;;-1.20;99.90;;;;;;6266816;22;20094;-80
2024/01/18 05:59:30;;;;;;;3.17;0.73;;;-1.00;99.90;;;;;;6265428;22;20405;-79
2024/01/18 06:01:55;;;;;;;7.88;0.95;;;-1.10;99.90;;;;;;6266057;22;20444;-79
2024/01/18 06:04:21;;;;;;;5.10;0.70;;;-1.00;99.90;;;;;;6266819;22;20019;-80
2024/01/18 06:06:47;;;;;;;7.50;1.80;;;-0.90;99.90;;;;;;6242041;22;20494;-80
2024/01/18 06:09:16;;;;;;;4.70;0.90;;;-0.70;99.90;;;;;;6241077;22;20130;-79
2024/01/18 06:11:44;;;;;;;3.67;1.25;;;-0.70;99.90;;;;;;6241252;22;20047;-79
2024/01/18 06:14:10;;;;;;;5.28;1.20;;;-0.50;99.90;;;;;;6265137;22;20086;-79
2024/01/18 06:16:35;;;;;;;2.30;1.20;;;-0.50;99.90;;;;;;6266313;22;20054;-79
2024/01/18 06:19:01;;;;;;;2.78;1.25;;;-0.50;99.90;;;;;;6266630;22;20019;-76
2024/01/18 06:21:26;;;;;;;1.60;0.90;;;-0.50;99.90;;;;;;6268094;22;20008;-80
2024/01/18 06:23:52;;;;;;;3.17;0.95;;;-0.60;99.90;;;;;;6243216;22;20140;-80
2024/01/18 06:26:18;;;;;;;1.15;0.70;;;-0.80;99.90;;;;;;6270128;22;20066;-80
2024/01/18 06:28:43;;;;;;;2.17;0.95;;;-0.70;99.90;;;;;;6269620;22;20023;-81
2024/01/18 06:31:09;;;;;;;1.38;0.70;;;-0.90;99.90;;;;;;6244951;22;20018;-80
2024/01/18 06:33:35;;;;;;;2.30;0.60;;;-1.00;99.90;;;;;;6271994;22;20024;-80
2024/01/18 06:36:01;;;;;;;3.78;0.70;;;-1.10;99.90;;;;;;6270399;22;20345;-80
2024/01/18 06:38:26;;;;;;;2.90;0.60;;;-1.20;99.90;;;;;;6270087;22;20080;-80
2024/01/18 06:40:52;;;;;;;1.43;0.50;;;-1.20;99.90;;;;;;6269743;22;20246;-80
2024/01/18 06:43:18;;;;;;;1.45;0.52;;;-1.00;99.90;;;;;;6270990;22;20007;-79
2024/01/18 06:45:43;;;;;;;6.32;0.70;;;-1.00;99.90;;;;;;6271594;22;20051;-81
2024/01/18 06:48:09;;;;;;;2.60;0.60;;;-0.80;99.90;;;;;;6270393;22;20038;-81
2024/01/18 06:50:38;;;;;;;3.67;0.68;;;-0.80;99.90;;;;;;6269911;22;20037;-81
2024/01/18 06:53:03;;;;;;;3.05;0.68;;;-0.60;99.90;;;;;;6269851;22;20046;-80
2024/01/18 06:55:29;;;;;;;3.00;0.50;;;-0.40;99.90;;;;;;6270012;22;20019;-80
2024/01/18 06:57:55;;;;;;;1.85;0.40;;;-0.30;99.90;;;;;;6268776;22;20026;-81
2024/01/18 07:00:24;;;;;;;2.97;0.60;;;-0.30;99.90;;;;;;6269912;22;20016;-81
2024/01/18 07:02:51;;;;;;;2.20;0.60;;;-0.20;99.90;;;;;;6268885;22;20094;-81
2024/01/18 07:05:17;;;;;;;3.50;0.63;;;-0.10;99.90;;;;;;6269835;22;20062;-81
2024/01/18 07:07:43;;;;;;;1.48;0.63;;;-0.10;99.90;;;;;;6269703;22;20069;-81
2024/01/18 07:10:09;;;;;;;3.92;0.47;;;-0.10;99.90;;;;;;6270289;22;20018;-80
2024/01/18 07:12:34;;;;;;;4.43;0.50;;;0.00;99.90;;;;;;6270727;22;20011;-81
2024/01/18 07:15:00;;;;;;;5.30;0.55;;;0.00;99.90;;;;;;6270310;22;20582;-80
2024/01/18 07:17:29;;;;;;;1.00;0.40;;;0.00;99.90;;;;;;6268683;22;20007;-81
2024/01/18 07:19:58;;;;;;;2.38;0.40;;;0.00;99.90;;;;;;6269507;22;20023;-81
2024/01/18 07:22:25;;;;;;;2.05;0.57;;;0.10;99.90;;;;;;6270185;22;20027;-81
2024/01/18 07:24:54;;;;;;;1.80;0.47;;;0.10;99.90;;;;;;6269843;22;20016;-81
2024/01/18 07:27:19;;;;;;;2.22;0.70;;;0.00;99.90;;;;;;6269798;22;20011;-81
2024/01/18 07:29:45;;;;;;;1.40;0.60;;;-0.10;99.90;;;;;;6244881;22;20520;-81
2024/01/18 07:32:11;;;;;;;2.35;0.43;;;-0.20;99.90;;;;;;6272132;22;20086;-81
2024/01/18 07:34:37;;;;;;;2.97;0.50;;;-0.30;99.90;;;;;;6270193;22;20072;-81
2024/01/18 07:37:03;;;;;;;4.35;0.47;;;-0.30;99.90;;;;;;6270355;22;20383;-81
2024/01/18 07:39:29;;;;;;;1.63;0.55;;;-0.40;99.90;;;;;;6271371;22;20135;-81
2024/01/18 07:41:55;;;;;;;0.95;0.47;;;-0.60;99.90;;;;;;6269841;22;20436;-81
2024/01/18 07:44:20;;;;;;;1.58;0.60;;;-0.60;99.90;;;;;;6270169;22;20047;-81
2024/01/18 07:46:46;;;;;;;2.30;0.90;;;-0.80;99.90;;;;;;6269165;22;20081;-81
2024/01/18 07:49:12;;;;;;;3.10;1.10;;;-0.80;99.90;;;;;;6271969;22;20011;-81
2024/01/18 07:51:38;;;;;;;2.95;0.70;;;-0.80;99.90;;;;;;6270086;22;20138;-81
2024/01/18 07:54:04;;;;;;;1.20;0.45;;;-0.80;99.90;;;;;;6269663;22;20322;-81
2024/01/18 07:56:30;;;;;;;0.70;0.50;;;-0.90;99.90;;;;;;6270221;22;20091;-81
2024/01/18 07:58:56;;;;;;;3.92;0.70;;;-0.90;99.90;;;;;;6269740;22;20393;-81
2024/01/18 08:01:22;;;;;;;2.38;0.50;;;-1.00;99.90;;;;;;6270346;22;20345;-81
2024/01/18 08:03:47;;;;;;;1.55;0.47;;;-1.10;99.90;;;;;;6243798;22;20214;-80
2024/01/18 08:06:13;;;;;;;1.90;0.63;;;-1.20;99.90;;;;;;6269790;22;20492;-80
2024/01/18 08:08:40;;;;;;;0.88;0.40;;;-1.20;99.90;;;;;;6267192;22;20027;-80
2024/01/18 08:11:10;;;;;;;1.15;0.47;;;-1.30;99.90;;;;;;6270143;22;20023;-80
2024/01/18 08:13:35;;;;;;;0.85;0.40;;;-1.30;99.90;;;;;;6269464;22;20023;-80
2024/01/18 08:16:01;;;;;;;1.05;0.40;;;-1.30;99.90;;;;;;6270203;22;20053;-80
2024/01/18 08:18:27;;;;;;;1.33;0.55;;;-1.30;99.90;;;;;;6270481;22;20020;-81
2024/01/18 08:20:52;;;;;;;0.83;0.30;;;-1.40;99.90;;;;;;6272189;22;20012;-80
2024/01/18 08:23:18;;;;;;;1.80;0.60;;;-1.20;99.90;;;;;;6269630;22;20273;-81
2024/01/18 08:25:44;;;;;;;2.55;0.70;;;-1.00;99.90;;;;;;6270279;22;20043;-81
2024/01/18 08:28:13;;;;;;;4.15;1.23;;;-0.90;99.90;;;;;;6243989;22;20126;-80
2024/01/18 08:30:39;;;;;;;3.72;1.10;;;-0.40;99.90;;;;;;6270158;22;20012;-80
2024/01/18 08:33:05;;;;;;;4.65;0.90;;;-0.10;99.90;;;;;;6270053;22;20012;-80
2024/01/18 08:35:30;;;;;;;2.97;1.07;;;0.20;99.90;;;;;;6271667;22;20102;-81
2024/01/18 08:37:56;;;;;;;1.50;0.83;;;0.30;99.90;;;;;;6269382;22;20238;-81
2024/01/18 08:40:22;;;;;;;1.67;0.90;;;0.40;99.90;;;;;;6269724;22;20020;-81
2024/01/18 08:42:48;;;;;;;2.15;0.93;;;0.40;99.90;;;;;;6269256;22;20239;-81
2024/01/18 08:45:14;;;;;;;1.93;1.20;;;0.50;99.90;;;;;;6269782;22;20464;-81
2024/01/18 08:47:40;;;;;;;2.05;1.25;;;0.40;99.90;;;;;;6271484;22;20231;-81
2024/01/18 08:50:06;;;;;;;1.90;1.27;;;0.30;99.90;;;;;;6269812;22;20016;-81
2024/01/18 08:52:31;;;;;;;4.93;1.50;;;0.30;99.90;;;;;;6269157;22;20020;-81
2024/01/18 08:54:57;;;;;;;3.17;1.13;;;0.30;99.90;;;;;;6271507;22;20057;-80
2024/01/18 08:57:23;;;;;;;3.33;0.85;;;0.30;99.90;;;;;;6271236;22;20230;-80
2024/01/18 08:59:48;;;;;;;1.95;0.80;;;0.20;99.90;;;;;;6271938;22;20011;-81
2024/01/18 09:02:14;;;;;;;5.20;0.83;;;0.10;99.90;;;;;;6269561;22;20437;-81
2024/01/18 09:04:40;;;;;;;1.55;0.60;;;0.00;99.90;;;;;;6269064;22;20274;-80
2024/01/18 09:07:08;;;;;;;2.13;0.60;;;0.10;99.90;;;;;;6243105;22;20433;-81
2024/01/18 09:09:34;;;;;;;2.28;0.80;;;0.20;99.90;;;;;;6269417;22;20015;-82
2024/01/18 09:11:59;;;;;;;2.27;0.80;;;0.30;99.90;;;;;;6269176;22;20020;-82
2024/01/18 09:14:25;;;;;;;3.90;0.73;;;0.30;99.90;;;;;;6269425;22;20281;-82
2024/01/18 09:16:51;;;;;;;3.90;0.77;;;0.40;99.90;;;;;;6271537;22;20046;-82
2024/01/18 09:19:16;;;;;;;4.30;0.80;;;0.40;99.90;;;;;;6270344;22;20258;-82
2024/01/18 09:21:43;;;;;;;5.25;1.20;;;0.70;99.90;;;;;;6268819;22;20603;-79
2024/01/18 09:24:09;;;;;;;3.38;1.02;;;1.10;99.90;;;;;;6271119;22;20019;-81
2024/01/18 09:26:35;;;;;;;2.65;0.77;;;1.20;99.90;;;;;;6271386;22;20494;-79
2024/01/18 09:29:02;;;;;;;6.32;1.38;;;1.20;99.90;;;;;;6243363;22;20111;-79
2024/01/18 09:31:28;;;;;;;4.63;0.90;;;1.20;99.90;;;;;;6269527;22;20130;-82
2024/01/18 09:33:53;;;;;;;2.65;0.90;;;1.30;99.90;;;;;;6269516;22;20050;-80
2024/01/18 09:36:19;;;;;;;2.42;0.90;;;1.30;99.90;;;;;;6270442;22;20022;-80
2024/01/18 09:38:46;;;;;;;3.78;1.48;;;1.30;99.90;;;;;;6269262;22;20096;-80
2024/01/18 09:41:15;;;;;;;3.97;1.00;;;1.30;99.90;;;;;;6269406;22;20027;-80
2024/01/18 09:43:43;;;;;;;4.53;1.08;;;1.50;99.90;;;;;;6268713;22;20024;-80
2024/01/18 09:46:11;;;;;;;3.38;1.00;;;1.50;99.90;;;;;;6269296;22;20340;-79
2024/01/18 09:48:37;;;;;;;3.92;0.73;;;1.40;99.90;;;;;;6269064;22;20008;-80
2024/01/18 09:51:06;;;;;;;4.20;0.90;;;1.50;99.90;;;;;;6269193;22;20310;-82
2024/01/18 09:53:32;;;;;;;2.42;0.90;;;1.50;99.90;;;;;;6269233;22;20027;-80
2024/01/18 09:56:24;;;;;;;3.83;1.20;;;1.30;99.90;;;;;;6270822;22;20030;-80
2024/01/18 09:58:51;;;;;;;6.45;1.40;;;1.20;99.90;;;;;;6268820;22;20029;-80
2024/01/18 10:01:21;;;;;;;4.30;1.88;;;1.00;99.90;;;;;;6269301;22;20023;-79
2024/01/18 10:03:49;;;;;;;8.70;2.35;;;1.10;99.90;;;;;;6268983;22;20051;-80
2024/01/18 10:06:15;;;;;;;4.97;1.77;;;1.00;99.90;;;;;;6268099;22;20028;-80
2024/01/18 10:08:41;;;;;;;3.08;1.30;;;1.10;99.90;;;;;;6268970;22;20019;-79
2024/01/18 10:11:07;;;;;;;5.80;1.27;;;1.10;99.90;;;;;;6269039;22;20081;-79
2024/01/18 10:13:55;;;;;;;1.90;0.70;;;1.00;99.90;;;;;;6268374;22;20016;-80
2024/01/18 10:16:32;;;;;;;1.90;0.60;;;1.10;99.90;;;;;;6271128;22;20643;-80
2024/01/18 10:19:00;;;;;;;;;;;1.20;99.90;;;;;;6269328;22;20023;-80
2024/01/18 10:21:26;;;;;;;1.10;0.60;;;1.50;99.90;;;;;;6269378;22;19919;-80
2024/01/18 10:23:53;;;;;;;3.35;0.70;;;1.50;99.90;;;;;;6269098;22;20069;-80
2024/01/18 10:26:22;;;;;;;2.83;0.82;;;1.70;99.90;;;;;;6269147;22;20019;-81
2024/01/18 10:28:48;;;;;;;2.22;0.60;;;1.70;99.90;;;;;;6270329;22;20038;-80
2024/01/18 10:31:14;;;;;;;1.95;0.52;;;1.90;99.90;;;;;;6269473;22;20702;-80
2024/01/18 10:33:40;;;;;;;2.57;0.60;;;1.80;99.90;;;;;;6270297;22;20024;-80
2024/01/18 10:36:06;;;;;;;1.35;0.35;;;2.00;99.90;;;;;;6270682;22;20750;-81
2024/01/18 10:38:35;;;;;;;2.85;0.40;;;1.90;99.90;;;;;;6267999;22;20024;-81
2024/01/18 10:41:02;;;;;;;5.90;1.13;;;1.90;99.90;;;;;;6269296;22;20090;-80
2024/01/18 10:43:32;;;;;;;0.98;0.30;;;1.80;99.90;;;;;;6268644;22;20471;-81
2024/01/18 10:45:59;;;;;;;1.80;0.80;;;2.00;99.90;;;;;;6270897;22;20030;-81
2024/01/18 10:48:30;;;;;;;6.05;1.20;;;2.30;99.90;;;;;;6268224;22;20030;-81
2024/01/18 10:50:56;;;;;;;5.10;1.30;;;2.40;99.90;;;;;;6269169;22;20558;-82
2024/01/18 10:53:29;;;;;;;6.00;1.38;;;2.50;99.90;;;;;;6269045;22;20016;-82
2024/01/18 10:55:55;;;;;;;3.85;1.05;;;2.40;99.90;;;;;;6269348;22;20113;-82
2024/01/18 10:58:21;;;;;;;4.90;1.05;;;2.30;99.90;;;;;;6243198;22;20087;-81
2024/01/18 11:00:47;;;;;;;4.37;0.90;;;2.00;99.90;;;;;;6269121;22;20027;-81
2024/01/18 11:03:15;;;;;;;4.47;1.10;;;1.90;99.90;;;;;;6268355;22;20254;-81
2024/01/18 11:05:45;;;;;;;3.55;1.00;;;1.80;99.90;;;;;;6269147;22;20024;-82
2024/01/18 11:08:12;;;;;;;1.90;0.70;;;1.70;99.90;;;;;;6270482;22;20016;-82
2024/01/18 11:10:39;;;;;;;3.58;1.20;;;1.80;99.90;;;;;;6270481;22;20019;-82
2024/01/18 11:13:05;;;;;;;1.92;1.35;;;1.90;99.90;;;;;;6268974;22;20016;-82
2024/01/18 11:15:31;;;;;;;3.15;0.93;;;1.90;99.90;;;;;;6270520;22;20024;-81
2024/01/18 11:17:58;;;;;;;3.13;1.02;;;1.90;99.90;;;;;;6270412;22;20077;-81
2024/01/18 11:20:24;;;;;;;4.03;1.00;;;2.20;99.90;;;;;;6271137;22;20047;-81
2024/01/18 11:22:50;;;;;;;2.53;1.05;;;2.50;99.90;;;;;;6270549;22;20015;-81
2024/01/18 11:25:21;;;;;;;2.30;0.70;;;2.90;99.90;;;;;;6270847;22;20016;-81
2024/01/18 11:27:47;;;;;;;2.33;0.70;;;3.20;99.90;;;;;;6270219;22;20018;-81
2024/01/18 11:30:32;;;;;;;3.38;0.90;;;3.20;99.90;;;;;;6272431;22;20340;-81
2024/01/18 11:32:58;;;;;;;3.35;0.90;;;3.40;99.90;;;;;;6272087;22;20011;-82
2024/01/18 11:35:24;;;;;;;3.25;1.10;;;3.50;99.90;;;;;;6270968;22;20070;-82
2024/01/18 11:37:50;;;;;;;2.72;0.80;;;3.40;99.90;;;;;;6271319;22;20019;-82
2024/01/18 11:40:17;;;;;;;4.07;0.73;;;3.70;99.90;;;;;;6271477;22;20026;-81
2024/01/18 11:42:45;;;;;;;3.25;0.80;;;3.70;99.90;;;;;;6270117;22;20015;-82
2024/01/18 11:45:18;;;;;;;2.45;0.70;;;3.90;99.90;;;;;;6272184;22;20465;-82
2024/01/18 11:50:30;;;;;;;3.65;0.70;;;3.90;99.90;;;;;;6271027;22;20074;-82
2024/01/18 11:52:56;;;;;;;4.60;1.10;;;4.00;99.90;;;;;;6270676;22;20012;-82
2024/01/18 11:55:24;;;;;;;2.92;1.00;;;4.00;99.90;;;;;;6270600;22;20575;-82
2024/01/18 11:57:52;;;;;;;4.20;1.20;;;4.20;99.90;;;;;;6270099;22;20026;-82
2024/01/18 12:00:19;;;;;;;4.38;1.10;;;4.50;99.90;;;;;;6269832;22;20114;-82
2024/01/18 12:02:45;;;;;;;4.70;1.00;;;4.10;99.90;;;;;;6270402;22;20015;-82
2024/01/18 12:05:10;;;;;;;3.95;1.15;;;4.40;99.90;;;;;;6270534;22;20073;-82
2024/01/18 12:07:38;;;;;;;3.97;1.08;;;4.30;99.90;;;;;;6270574;22;20035;-82
2024/01/18 12:10:06;;;;;;;4.38;1.48;;;4.40;99.90;;;;;;6269260;22;20086;-81
2024/01/18 12:12:31;;;;;;;1.95;0.77;;;4.50;99.90;;;;;;6268555;22;20472;-81
2024/01/18 12:14:57;;;;;;;3.55;1.00;;;4.40;99.90;;;;;;6269986;22;20030;-81
2024/01/18 12:17:23;;;;;;;3.40;0.90;;;4.50;99.90;;;;;;6270347;22;20012;-80
2024/01/18 12:19:49;;;;;;;4.13;0.98;;;4.30;99.90;;;;;;6270457;22;20035;-80
2024/01/18 12:22:19;;;;;;;3.13;0.80;;;4.40;99.90;;;;;;6270357;22;20337;-80
2024/01/18 12:24:48;;;;;;;3.78;0.80;;;4.10;99.90;;;;;;6270064;22;20041;-80
2024/01/18 12:27:14;;;;;;;2.55;0.80;;;4.30;99.90;;;;;;6271726;22;20067;-80
2024/01/18 12:29:41;;;;;;;3.22;0.80;;;4.60;99.90;;;;;;6269874;22;20016;-80
2024/01/18 12:32:08;;;;;;;3.08;1.00;;;4.40;99.90;;;;;;6244657;22;20012;-80
2024/01/18 12:34:35;;;;;;;4.78;0.90;;;4.40;99.90;;;;;;6270384;22;20065;-80
2024/01/18 12:37:02;;;;;;;2.55;0.70;;;4.20;99.90;;;;;;6272160;22;20079;-80
2024/01/18 12:39:30;;;;;;;2.67;0.77;;;4.30;99.90;;;;;;6269989;22;20030;-80
2024/01/18 12:41:56;;;;;;;2.05;0.70;;;4.40;99.90;;;;;;6268965;22;20019;-80
2024/01/18 12:44:22;;;;;;;4.35;1.00;;;4.50;99.90;;;;;;6268871;22;20100;-80
2024/01/18 12:46:54;;;;;;;3.55;0.95;;;4.50;99.90;;;;;;6269774;22;20047;-80
2024/01/18 12:49:20;;;;;;;2.45;0.80;;;4.50;99.90;;;;;;6270018;22;20015;-80